createdAt,value
2022-12-31T00:00:15.076Z,36.78
2022-12-31T00:02:42.351Z,35.03
2022-12-31T00:05:09.898Z,35.78
2022-12-31T00:10:05.106Z,38.65
2022-12-31T00:12:32.110Z,30.33
2022-12-31T00:14:59.135Z,34.55
2022-12-31T00:17:26.125Z,35.83
2022-12-31T00:19:52.994Z,26.90
2022-12-31T00:22:19.892Z,30.38
2022-12-31T00:24:47.278Z,28.27
2022-12-31T00:27:14.377Z,33.60
2022-12-31T00:29:41.316Z,33.95
2022-12-31T00:32:08.416Z,30.60
2022-12-31T00:34:35.670Z,33.28
2022-12-31T00:37:02.885Z,38.78
2022-12-31T00:39:30.053Z,32.97
2022-12-31T00:41:56.993Z,30.75
2022-12-31T00:44:23.870Z,32.42
2022-12-31T00:46:50.783Z,30.92
2022-12-31T00:49:17.886Z,28.73
2022-12-31T00:51:46.613Z,34.78
2022-12-31T00:54:13.720Z,28.25
2022-12-31T00:56:40.909Z,31.27
2022-12-31T00:59:07.847Z,29.75
2022-12-31T01:01:39.040Z,31.52
2022-12-31T01:04:09.297Z,30.27
2022-12-31T01:06:36.338Z,26.48
2022-12-31T01:09:05.693Z,28.45
2022-12-31T01:11:32.990Z,24.77
2022-12-31T01:14:20.447Z,26.10
2022-12-31T01:16:50.003Z,27.10
2022-12-31T01:19:29.138Z,29.35
2022-12-31T01:21:56.584Z,26.45
2022-12-31T01:24:24.273Z,24.83
2022-12-31T01:26:51.814Z,29.77
2022-12-31T01:29:18.807Z,27.15
2022-12-31T01:31:47.770Z,29.42
2022-12-31T01:34:14.731Z,33.60
2022-12-31T01:36:41.761Z,30.70
2022-12-31T01:39:09.655Z,32.70
2022-12-31T01:41:39.846Z,34.85
2022-12-31T01:44:12.897Z,32.70
2022-12-31T01:46:53.378Z,35.38
2022-12-31T01:49:37.103Z,33.70
2022-12-31T01:52:09.002Z,35.03
2022-12-31T01:57:08.614Z,34.28
2022-12-31T01:59:35.996Z,32.67
2022-12-31T02:02:03.822Z,42.10
2022-12-31T02:04:31.064Z,34.17
2022-12-31T02:07:02.598Z,72.22
2022-12-31T02:09:31.235Z,44.25
2022-12-31T02:11:58.187Z,27.52
2022-12-31T02:14:47.966Z,29.35
2022-12-31T02:17:33.699Z,27.77
2022-12-31T02:20:19.343Z,31.20
2022-12-31T02:23:25.925Z,27.80
2022-12-31T02:26:27.177Z,35.75
2022-12-31T02:29:23.333Z,30.85
2022-12-31T02:31:57.071Z,28.73
2022-12-31T02:34:38.306Z,28.00
2022-12-31T02:37:10.620Z,30.92
2022-12-31T02:39:38.288Z,31.48
2022-12-31T02:42:05.540Z,31.52
2022-12-31T02:44:35.272Z,29.77
2022-12-31T02:47:08.106Z,25.13
2022-12-31T02:49:51.291Z,27.25
2022-12-31T02:52:39.728Z,28.13
2022-12-31T02:55:13.389Z,28.77
2022-12-31T02:58:19.515Z,25.15
2022-12-31T03:01:09.951Z,28.08
2022-12-31T03:03:37.777Z,28.50
2022-12-31T03:06:08.047Z,30.08
2022-12-31T03:08:58.383Z,30.77
2022-12-31T03:11:43.910Z,29.52
2022-12-31T03:14:10.819Z,30.02
2022-12-31T03:16:37.837Z,32.25
2022-12-31T03:19:23.444Z,49.05
2022-12-31T03:22:08.996Z,43.00
2022-12-31T03:24:54.264Z,48.33
2022-12-31T03:27:21.363Z,51.13
2022-12-31T03:29:50.813Z,54.38
2022-12-31T03:32:18.844Z,48.85
2022-12-31T03:34:45.819Z,44.22
2022-12-31T03:37:12.771Z,47.65
2022-12-31T03:39:39.866Z,48.35
2022-12-31T03:42:06.880Z,49.38
2022-12-31T03:44:33.725Z,47.20
2022-12-31T03:47:00.702Z,46.42
2022-12-31T03:49:27.630Z,47.65
2022-12-31T03:51:54.518Z,41.50
2022-12-31T03:54:21.474Z,40.90
2022-12-31T03:56:49.648Z,42.00
2022-12-31T03:59:16.572Z,44.35
2022-12-31T04:01:43.849Z,42.47
2022-12-31T04:04:10.992Z,48.50
2022-12-31T04:06:38.003Z,44.55
2022-12-31T04:09:04.945Z,43.95
2022-12-31T04:11:31.950Z,54.53
2022-12-31T04:13:59.305Z,45.63
2022-12-31T04:16:26.401Z,45.35
2022-12-31T04:18:53.439Z,45.25
2022-12-31T04:21:20.436Z,42.95
2022-12-31T04:23:47.336Z,45.30
2022-12-31T04:26:14.200Z,45.60
2022-12-31T04:28:41.145Z,46.80
2022-12-31T04:31:08.272Z,48.03
2022-12-31T04:33:35.244Z,44.38
2022-12-31T04:36:03.586Z,45.40
2022-12-31T04:38:30.665Z,41.90
2022-12-31T04:41:16.610Z,40.97
2022-12-31T04:43:49.782Z,43.30
2022-12-31T04:46:20.165Z,40.15
2022-12-31T04:48:47.520Z,40.88
2022-12-31T04:51:14.812Z,48.75
2022-12-31T04:53:42.481Z,41.35
2022-12-31T04:56:10.054Z,38.05
2022-12-31T04:58:38.591Z,39.33
2022-12-31T05:01:06.421Z,36.85
2022-12-31T05:03:34.285Z,33.33
2022-12-31T05:06:11.087Z,35.60
2022-12-31T05:08:38.128Z,33.00
2022-12-31T05:11:05.706Z,33.72
2022-12-31T05:13:33.630Z,32.78
2022-12-31T05:16:01.930Z,32.17
2022-12-31T05:18:29.495Z,31.85
2022-12-31T05:20:56.473Z,31.67
2022-12-31T05:23:24.523Z,29.83
2022-12-31T05:25:52.197Z,29.38
2022-12-31T05:28:19.240Z,26.38
2022-12-31T05:30:50.259Z,30.27
2022-12-31T05:33:18.566Z,23.45
2022-12-31T05:35:46.141Z,31.65
2022-12-31T05:38:13.246Z,30.45
2022-12-31T05:40:40.150Z,36.00
2022-12-31T05:43:07.548Z,34.65
2022-12-31T05:45:34.528Z,37.70
2022-12-31T05:48:02.053Z,36.88
2022-12-31T05:50:29.218Z,38.60
2022-12-31T05:52:56.853Z,39.50
2022-12-31T05:55:23.928Z,37.63
2022-12-31T05:57:51.205Z,38.05
2022-12-31T06:00:18.313Z,33.10
2022-12-31T06:02:45.562Z,32.15
2022-12-31T06:05:12.813Z,33.22
2022-12-31T06:07:39.873Z,33.13
2022-12-31T06:10:07.236Z,32.05
2022-12-31T06:12:34.210Z,32.33
2022-12-31T06:15:01.143Z,35.60
2022-12-31T06:17:32.477Z,35.10
2022-12-31T06:20:00.172Z,35.50
2022-12-31T06:22:28.329Z,41.13
2022-12-31T06:24:55.410Z,39.30
2022-12-31T06:27:22.375Z,41.13
2022-12-31T06:29:49.609Z,39.22
2022-12-31T06:32:16.594Z,43.20
2022-12-31T06:34:43.503Z,46.70
2022-12-31T06:37:10.471Z,43.20
2022-12-31T06:39:37.549Z,38.58
2022-12-31T06:42:04.681Z,38.28
2022-12-31T06:44:31.550Z,39.30
2022-12-31T06:46:58.468Z,33.47
2022-12-31T06:49:25.397Z,35.20
2022-12-31T06:51:52.436Z,35.72
2022-12-31T06:54:19.458Z,35.97
2022-12-31T06:56:46.931Z,33.72
2022-12-31T06:59:24.582Z,40.88
2022-12-31T07:02:03.589Z,39.55
2022-12-31T07:05:11.538Z,35.63
2022-12-31T07:08:05.660Z,35.10
2022-12-31T07:11:11.123Z,38.50
2022-12-31T07:13:57.017Z,36.80
2022-12-31T07:16:39.844Z,38.65
2022-12-31T07:19:17.704Z,36.33
2022-12-31T07:21:44.992Z,33.90
2022-12-31T07:24:12.725Z,34.88
2022-12-31T07:27:17.141Z,33.25
2022-12-31T07:30:06.159Z,30.90
2022-12-31T07:32:45.621Z,28.88
2022-12-31T07:35:35.467Z,28.90
2022-12-31T07:38:34.489Z,30.05
2022-12-31T07:41:54.791Z,32.55
2022-12-31T07:44:36.541Z,31.90
2022-12-31T07:47:06.040Z,35.33
2022-12-31T07:49:34.309Z,36.45
2022-12-31T07:52:02.467Z,38.50
2022-12-31T07:54:31.686Z,40.05
2022-12-31T07:56:58.732Z,39.10
2022-12-31T07:59:54.391Z,36.70
2022-12-31T08:02:59.145Z,37.20
2022-12-31T08:05:37.813Z,37.90
2022-12-31T08:08:30.658Z,31.48
2022-12-31T08:11:19.158Z,35.30
2022-12-31T08:13:49.043Z,34.40
2022-12-31T08:16:22.892Z,33.67
2022-12-31T08:18:51.673Z,37.85
2022-12-31T08:21:42.635Z,36.65
2022-12-31T08:24:30.975Z,32.53
2022-12-31T08:27:24.239Z,33.72
2022-12-31T08:30:07.955Z,34.22
2022-12-31T08:32:51.483Z,32.20
2022-12-31T08:35:45.550Z,35.10
2022-12-31T08:38:50.231Z,36.90
2022-12-31T08:41:18.501Z,47.55
2022-12-31T08:43:56.031Z,45.33
2022-12-31T08:46:51.082Z,46.25
2022-12-31T08:49:58.458Z,52.40
2022-12-31T08:52:31.752Z,35.58
2022-12-31T08:54:59.233Z,50.67
2022-12-31T08:57:58.981Z,50.83
2022-12-31T09:00:32.228Z,48.55
2022-12-31T09:03:28.783Z,47.92
2022-12-31T09:13:55.364Z,49.28
2022-12-31T09:23:13.656Z,47.93
2022-12-31T09:29:17.611Z,52.90
2022-12-31T09:32:46.957Z,49.92
2022-12-31T09:35:52.507Z,43.58
2022-12-31T09:38:47.555Z,51.50
2022-12-31T09:41:18.413Z,56.67
2022-12-31T09:44:23.534Z,52.28
2022-12-31T09:47:18.697Z,55.05
2022-12-31T09:50:12.642Z,56.17
2022-12-31T09:53:00.509Z,48.75
2022-12-31T09:55:33.848Z,53.05
2022-12-31T09:58:21.322Z,57.72
2022-12-31T10:01:18.036Z,57.50
2022-12-31T10:07:32.086Z,61.13
2022-12-31T10:13:39.294Z,65.35
2022-12-31T10:19:51.535Z,58.08
2022-12-31T10:22:57.711Z,56.90
2022-12-31T10:25:44.726Z,58.03
2022-12-31T10:29:00.267Z,55.20
2022-12-31T10:31:58.881Z,53.83
2022-12-31T10:34:53.767Z,53.80
2022-12-31T10:37:32.840Z,54.92
2022-12-31T10:40:09.040Z,57.33
2022-12-31T10:42:59.568Z,54.72
2022-12-31T10:45:38.770Z,46.75
2022-12-31T10:56:09.805Z,54.38
2022-12-31T11:09:59.292Z,54.83
2022-12-31T11:12:54.231Z,51.03
2022-12-31T11:22:50.361Z,63.35
2022-12-31T11:25:56.804Z,52.17
2022-12-31T11:28:58.502Z,53.28
2022-12-31T11:31:41.517Z,56.17
2022-12-31T11:34:16.746Z,49.50
2022-12-31T11:36:55.489Z,53.00
2022-12-31T11:40:00.609Z,49.38
2022-12-31T11:42:55.977Z,53.38
2022-12-31T11:46:01.622Z,53.15
2022-12-31T11:49:02.794Z,54.15
2022-12-31T11:51:58.917Z,51.60
2022-12-31T11:55:11.875Z,53.85
2022-12-31T11:57:51.198Z,47.90
2022-12-31T12:00:26.449Z,52.08
2022-12-31T12:03:12.174Z,50.33
2022-12-31T12:05:43.488Z,55.47
2022-12-31T12:08:33.367Z,48.30
2022-12-31T13:37:33.473Z,53.95
2022-12-31T13:40:24.661Z,55.75
2022-12-31T13:52:38.768Z,59.08
2022-12-31T13:58:02.566Z,58.60
2022-12-31T14:04:21.115Z,59.47
2022-12-31T14:07:19.735Z,61.17
2022-12-31T14:10:02.322Z,59.42
2022-12-31T14:17:30.822Z,64.80
2022-12-31T14:20:27.105Z,60.20
2022-12-31T14:23:02.987Z,60.67
2022-12-31T14:25:42.506Z,68.22
2022-12-31T14:29:26.668Z,66.90
2022-12-31T14:32:35.133Z,66.95
2022-12-31T14:59:35.615Z,69.75
2022-12-31T15:03:46.708Z,69.70
2022-12-31T15:09:57.921Z,64.30
2022-12-31T15:16:40.539Z,65.90
2022-12-31T15:20:02.697Z,67.90
2022-12-31T15:22:58.198Z,71.45
2022-12-31T15:25:28.649Z,71.90
2022-12-31T15:28:10.157Z,95.93
2022-12-31T15:31:01.753Z,90.78
2022-12-31T15:33:43.439Z,85.43
2022-12-31T15:39:13.787Z,81.78
2022-12-31T15:45:53.373Z,75.93
2022-12-31T15:48:52.065Z,77.32
2022-12-31T15:51:37.329Z,77.03
2022-12-31T15:54:38.130Z,76.35
2022-12-31T16:27:32.477Z,77.65
2022-12-31T16:39:31.185Z,81.55
2022-12-31T16:42:21.002Z,82.90
2022-12-31T16:44:55.587Z,81.05
2022-12-31T16:47:26.416Z,90.07
2022-12-31T16:50:26.560Z,82.55
2022-12-31T16:53:07.813Z,88.38
2022-12-31T16:55:40.048Z,88.07
2022-12-31T16:58:10.036Z,89.20
2022-12-31T17:00:43.135Z,96.28
2022-12-31T17:03:19.879Z,98.75
2022-12-31T17:05:57.438Z,88.63
2022-12-31T17:08:58.984Z,96.32
2022-12-31T17:11:36.721Z,92.93
2022-12-31T17:14:17.489Z,90.30
2022-12-31T17:17:02.981Z,87.03
2022-12-31T17:19:51.341Z,79.70
2022-12-31T17:25:31.531Z,81.03
2022-12-31T17:28:21.311Z,79.15
2022-12-31T17:30:51.140Z,85.10
2022-12-31T17:33:21.599Z,77.28
2022-12-31T17:35:55.908Z,82.18
2022-12-31T17:38:28.160Z,84.45
2022-12-31T18:15:36.076Z,83.03
2022-12-31T18:18:33.656Z,72.38
2022-12-31T18:21:34.798Z,74.05
2022-12-31T18:36:56.902Z,80.15
2022-12-31T18:39:28.467Z,92.85
2022-12-31T18:42:00.768Z,91.22
2022-12-31T18:44:35.885Z,92.97
2022-12-31T18:47:37.325Z,89.95
2022-12-31T18:52:58.287Z,94.28
2022-12-31T19:01:56.047Z,87.37
2022-12-31T19:10:46.372Z,87.35
2022-12-31T19:13:38.769Z,79.20
2022-12-31T19:17:24.680Z,77.68
2022-12-31T19:20:20.346Z,79.47
2022-12-31T19:25:42.418Z,72.25
2022-12-31T19:28:43.987Z,85.93
2022-12-31T19:31:46.220Z,89.50
2022-12-31T19:57:06.263Z,87.13
2022-12-31T20:00:31.897Z,94.93
2022-12-31T20:06:35.918Z,95.63
2022-12-31T20:13:05.321Z,84.85
2022-12-31T20:19:34.521Z,79.22
2022-12-31T20:22:47.914Z,80.28
2022-12-31T20:25:19.394Z,82.80
2022-12-31T20:34:51.828Z,66.63
2022-12-31T20:38:04.449Z,91.10
2022-12-31T20:54:04.967Z,100.55
2022-12-31T21:03:36.631Z,95.97
2022-12-31T21:18:47.693Z,74.35
2022-12-31T21:21:23.086Z,75.10
2022-12-31T21:24:27.418Z,70.72
2022-12-31T21:27:18.378Z,73.68
2022-12-31T21:32:36.005Z,74.60
2022-12-31T21:47:00.716Z,65.50
2022-12-31T21:49:31.329Z,64.57
2022-12-31T21:52:20.969Z,64.63
2022-12-31T21:55:08.563Z,60.53
2022-12-31T21:58:15.714Z,64.85
2022-12-31T22:06:28.673Z,57.63
2022-12-31T22:09:10.872Z,59.35
2022-12-31T22:11:48.995Z,58.05
2022-12-31T22:20:37.388Z,59.72
2022-12-31T22:23:13.766Z,59.75
2022-12-31T22:25:46.964Z,58.22
2022-12-31T22:28:40.187Z,63.30
2022-12-31T22:34:10.053Z,62.33
2022-12-31T22:37:46.122Z,58.42
2022-12-31T22:43:37.112Z,58.35
2022-12-31T22:46:35.311Z,58.65
2022-12-31T22:49:45.433Z,56.67
2022-12-31T22:52:34.610Z,55.55
2022-12-31T22:55:11.816Z,54.60
2022-12-31T23:00:47.673Z,125.55
2022-12-31T23:06:03.762Z,164.23
2022-12-31T23:09:16.537Z,126.40
2022-12-31T23:14:54.982Z,105.85
2022-12-31T23:17:50.941Z,197.52
2022-12-31T23:20:59.597Z,180.27
2022-12-31T23:23:45.545Z,153.30
2022-12-31T23:29:02.680Z,153.00
2022-12-31T23:31:31.050Z,120.05
2022-12-31T23:34:00.037Z,147.50
2022-12-31T23:36:29.470Z,180.55
2022-12-31T23:39:46.218Z,165.45
2022-12-31T23:42:57.078Z,114.13
2022-12-31T23:45:49.697Z,106.70
2022-12-31T23:51:30.985Z,93.18
2022-12-31T23:59:52.962Z,102.78
